createdAt,value
2022-10-17T00:02:13.876Z,19.50
2022-10-17T00:04:42.576Z,19.60
2022-10-17T00:07:11.253Z,17.98
2022-10-17T00:09:39.631Z,18.48
2022-10-17T00:12:07.970Z,17.23
2022-10-17T00:14:38.076Z,18.35
2022-10-17T00:17:06.838Z,18.83
2022-10-17T00:19:35.036Z,19.52
2022-10-17T00:22:03.515Z,19.75
2022-10-17T00:24:38.739Z,19.05
2022-10-17T00:27:07.193Z,18.55
2022-10-17T00:29:38.427Z,18.77
2022-10-17T00:32:07.390Z,18.65
2022-10-17T00:34:36.067Z,19.40
2022-10-17T00:37:04.553Z,19.20
2022-10-17T00:39:33.166Z,18.95
2022-10-17T00:42:01.627Z,18.25
2022-10-17T00:45:07.845Z,18.10
2022-10-17T00:47:37.551Z,17.92
2022-10-17T00:50:06.637Z,18.42
2022-10-17T00:52:37.351Z,18.35
2022-10-17T00:55:15.574Z,19.00
2022-10-17T00:57:47.451Z,19.27
2022-10-17T01:00:19.300Z,19.48
2022-10-17T01:02:49.819Z,18.85
2022-10-17T01:05:19.249Z,18.55
2022-10-17T01:07:50.353Z,18.98
2022-10-17T01:13:02.322Z,18.75
2022-10-17T01:15:43.214Z,18.58
2022-10-17T01:18:24.660Z,17.13
2022-10-17T01:21:15.834Z,17.67
2022-10-17T01:24:09.868Z,16.90
2022-10-17T01:27:08.974Z,15.65
2022-10-17T01:29:56.693Z,16.20
2022-10-17T01:32:36.322Z,16.58
2022-10-17T01:35:11.504Z,15.88
2022-10-17T01:37:47.628Z,16.00
2022-10-17T01:40:22.473Z,16.50
2022-10-17T01:43:00.448Z,16.13
2022-10-17T01:45:32.994Z,15.85
2022-10-17T01:48:10.330Z,15.68
2022-10-17T01:50:46.619Z,15.70
2022-10-17T01:53:21.116Z,15.30
2022-10-17T01:55:52.975Z,15.65
2022-10-17T01:58:25.086Z,15.65
2022-10-17T02:00:56.898Z,15.93
2022-10-17T02:05:57.154Z,15.32
2022-10-17T02:08:29.628Z,16.05
2022-10-17T02:11:01.915Z,15.48
2022-10-17T02:13:42.434Z,15.15
2022-10-17T02:16:22.493Z,13.80
2022-10-17T02:19:15.279Z,14.43
2022-10-17T02:21:50.867Z,14.38
2022-10-17T02:24:25.311Z,14.43
2022-10-17T02:27:00.335Z,14.50
2022-10-17T02:29:32.165Z,14.60
2022-10-17T02:32:06.051Z,14.77
2022-10-17T02:34:41.563Z,14.45
2022-10-17T02:37:13.256Z,13.98
2022-10-17T02:42:17.191Z,14.43
2022-10-17T02:44:47.270Z,14.45
2022-10-17T02:47:22.219Z,14.35
2022-10-17T02:49:56.334Z,13.70
2022-10-17T02:52:31.239Z,13.40
2022-10-17T02:55:04.978Z,13.20
2022-10-17T02:57:39.700Z,12.77
2022-10-17T03:00:12.358Z,14.00
2022-10-17T03:02:41.882Z,13.52
2022-10-17T03:05:14.168Z,13.20
2022-10-17T03:07:43.682Z,14.13
2022-10-17T03:10:15.097Z,15.20
2022-10-17T03:12:43.225Z,14.73
2022-10-17T03:15:12.961Z,15.40
2022-10-17T03:17:42.714Z,15.23
2022-10-17T03:20:12.884Z,15.27
2022-10-17T03:22:41.175Z,15.88
2022-10-17T03:25:10.142Z,14.70
2022-10-17T03:27:38.372Z,14.60
2022-10-17T03:30:08.600Z,15.60
2022-10-17T03:32:37.011Z,15.93
2022-10-17T03:35:07.094Z,15.35
2022-10-17T03:37:37.697Z,17.20
2022-10-17T03:40:07.784Z,16.27
2022-10-17T03:42:36.070Z,15.93
2022-10-17T03:45:04.620Z,16.05
2022-10-17T03:47:33.339Z,14.85
2022-10-17T03:50:03.726Z,14.60
2022-10-17T03:52:33.073Z,14.05
2022-10-17T03:55:02.805Z,14.65
2022-10-17T03:57:31.045Z,16.63
2022-10-17T04:00:00.075Z,14.52
2022-10-17T04:02:28.490Z,13.20
2022-10-17T04:04:56.862Z,12.52
2022-10-17T04:10:00.543Z,13.80
2022-10-17T04:12:32.670Z,14.05
2022-10-17T04:15:02.488Z,14.50
2022-10-17T04:17:35.904Z,14.43
2022-10-17T04:20:10.705Z,15.18
2022-10-17T04:22:40.002Z,14.98
2022-10-17T04:25:08.618Z,15.95
2022-10-17T04:27:39.953Z,16.60
2022-10-17T04:30:09.313Z,17.88
2022-10-17T04:32:39.377Z,19.08
2022-10-17T04:35:10.658Z,17.10
2022-10-17T04:37:39.378Z,16.85
2022-10-17T04:40:09.044Z,16.02
2022-10-17T04:42:38.544Z,16.27
2022-10-17T04:45:08.332Z,16.95
2022-10-17T04:47:36.756Z,18.08
2022-10-17T04:50:06.057Z,18.20
2022-10-17T04:52:37.454Z,18.50
2022-10-17T04:55:06.764Z,18.23
2022-10-17T04:57:36.916Z,18.35
2022-10-17T05:02:38.815Z,16.90
2022-10-17T05:05:10.585Z,16.77
2022-10-17T05:07:41.438Z,17.95
2022-10-17T05:10:10.868Z,16.87
2022-10-17T05:12:40.151Z,17.38
2022-10-17T05:15:14.185Z,18.80
2022-10-17T05:17:46.037Z,20.13
2022-10-17T05:20:15.910Z,19.50
2022-10-17T05:22:47.103Z,18.58
2022-10-17T05:25:15.658Z,18.70
2022-10-17T05:27:45.015Z,19.77
2022-10-17T05:30:18.531Z,50.20
2022-10-17T05:32:50.136Z,26.02
2022-10-17T05:35:21.454Z,19.33
2022-10-17T05:37:51.285Z,19.80
2022-10-17T05:40:26.089Z,21.33
2022-10-17T05:42:55.308Z,19.92
2022-10-17T05:45:32.455Z,20.70
2022-10-17T05:48:03.908Z,19.90
2022-10-17T05:50:34.882Z,20.63
2022-10-17T05:53:05.191Z,21.17
2022-10-17T05:55:41.267Z,20.65
2022-10-17T05:58:17.763Z,20.42
2022-10-17T06:01:02.329Z,22.10
2022-10-17T06:03:37.084Z,21.77
2022-10-17T06:06:13.247Z,20.88
2022-10-17T06:08:43.509Z,21.88
2022-10-17T06:11:12.292Z,22.15
2022-10-17T06:13:44.059Z,22.00
2022-10-17T06:16:13.851Z,22.70
2022-10-17T06:18:42.414Z,22.60
2022-10-17T06:21:12.467Z,24.90
2022-10-17T06:23:41.073Z,25.90
2022-10-17T06:26:10.529Z,26.50
2022-10-17T06:28:38.849Z,26.15
2022-10-17T06:31:08.492Z,25.13
2022-10-17T06:33:39.111Z,23.67
2022-10-17T06:38:38.130Z,23.10
2022-10-17T06:41:08.854Z,24.05
2022-10-17T06:43:37.536Z,22.60
2022-10-17T06:46:06.649Z,22.40
2022-10-17T06:48:35.963Z,21.92
2022-10-17T06:51:07.483Z,21.35
2022-10-17T06:53:36.394Z,20.75
2022-10-17T06:56:06.823Z,19.40
2022-10-17T06:58:40.065Z,20.70
2022-10-17T07:01:10.557Z,19.08
2022-10-17T07:03:39.275Z,17.85
2022-10-17T07:06:10.908Z,17.50
2022-10-17T07:08:39.620Z,17.38
2022-10-17T07:11:11.944Z,17.08
2022-10-17T07:13:40.493Z,16.80
2022-10-17T07:16:09.120Z,17.10
2022-10-17T07:18:37.715Z,15.90
2022-10-17T07:21:06.625Z,16.42
2022-10-17T07:23:37.187Z,14.93
2022-10-17T07:26:08.202Z,14.15
2022-10-17T07:28:37.397Z,14.07
2022-10-17T07:31:07.354Z,13.52
2022-10-17T07:33:36.459Z,13.70
2022-10-17T07:36:08.461Z,12.88
2022-10-17T07:38:39.087Z,13.82
2022-10-17T07:41:12.165Z,12.85
2022-10-17T07:43:42.439Z,12.75
2022-10-17T07:46:13.455Z,13.32
2022-10-17T07:48:41.548Z,13.10
2022-10-17T07:51:11.463Z,12.88
2022-10-17T07:53:46.420Z,12.77
2022-10-17T07:56:20.422Z,12.48
2022-10-17T07:58:49.452Z,12.63
2022-10-17T08:01:19.113Z,12.07
2022-10-17T08:03:49.417Z,11.65
2022-10-17T08:06:18.203Z,11.57
2022-10-17T08:08:48.024Z,11.88
2022-10-17T08:11:17.887Z,11.73
2022-10-17T08:13:48.827Z,11.00
2022-10-17T08:16:19.099Z,10.77
2022-10-17T08:18:47.458Z,11.00
2022-10-17T08:21:16.904Z,10.80
2022-10-17T08:23:48.319Z,10.77
2022-10-17T08:26:20.275Z,10.77
2022-10-17T08:31:21.580Z,10.55
2022-10-17T08:33:51.267Z,10.50
2022-10-17T08:36:23.144Z,9.50
2022-10-17T08:41:40.479Z,9.70
2022-10-17T08:44:18.648Z,9.70
2022-10-17T08:46:49.610Z,10.20
2022-10-17T08:49:26.500Z,9.65
2022-10-17T08:52:03.526Z,9.85
2022-10-17T08:54:41.800Z,9.45
2022-10-17T08:57:15.523Z,9.30
2022-10-17T08:59:47.105Z,9.10
2022-10-17T09:02:29.845Z,8.43
2022-10-17T09:05:23.985Z,8.80
2022-10-17T09:08:10.426Z,8.95
2022-10-17T09:10:52.284Z,8.93
2022-10-17T09:13:33.981Z,9.27
2022-10-17T09:16:26.173Z,8.88
2022-10-17T09:19:03.029Z,8.20
2022-10-17T09:21:43.109Z,7.78
2022-10-17T09:24:17.248Z,7.40
2022-10-17T09:26:48.842Z,7.45
2022-10-17T09:31:58.772Z,7.50
2022-10-17T09:34:32.403Z,7.88
2022-10-17T09:37:03.259Z,7.22
2022-10-17T09:39:33.458Z,7.72
2022-10-17T09:42:04.226Z,7.53
2022-10-17T09:44:36.900Z,7.10
2022-10-17T09:47:16.576Z,7.82
2022-10-17T09:49:47.284Z,6.80
2022-10-17T09:52:19.137Z,6.38
2022-10-17T09:54:50.206Z,6.50
2022-10-17T09:57:23.250Z,6.53
2022-10-17T10:00:01.648Z,6.60
2022-10-17T10:02:33.648Z,6.47
2022-10-17T10:05:07.623Z,6.50
2022-10-17T10:07:37.983Z,6.50
2022-10-17T10:10:08.547Z,6.40
2022-10-17T10:12:38.662Z,5.95
2022-10-17T10:15:41.700Z,6.25
2022-10-17T10:18:35.459Z,6.10
2022-10-17T10:21:14.741Z,6.35
2022-10-17T10:23:44.564Z,6.20
2022-10-17T10:26:25.917Z,6.40
2022-10-17T10:28:57.802Z,6.55
2022-10-17T10:31:34.701Z,6.22
2022-10-17T10:34:12.850Z,6.10
2022-10-17T10:36:59.527Z,5.97
2022-10-17T10:39:43.683Z,6.25
2022-10-17T10:42:22.588Z,6.00
2022-10-17T10:44:51.535Z,6.25
2022-10-17T10:47:30.601Z,6.32
2022-10-17T10:50:22.680Z,6.47
2022-10-17T10:52:59.383Z,6.65
2022-10-17T10:55:33.151Z,6.47
2022-10-17T10:58:07.768Z,6.82
2022-10-17T11:00:39.165Z,6.32
2022-10-17T11:03:15.274Z,6.50
2022-10-17T11:05:48.496Z,6.35
2022-10-17T11:08:26.274Z,6.63
2022-10-17T11:11:19.582Z,6.10
2022-10-17T11:13:54.261Z,7.10
2022-10-17T11:16:32.630Z,6.57
2022-10-17T11:19:09.410Z,6.72
2022-10-17T11:21:45.718Z,6.50
2022-10-17T11:24:20.997Z,6.80
2022-10-17T11:26:55.459Z,6.40
2022-10-17T11:29:33.102Z,6.15
2022-10-17T11:32:09.888Z,6.22
2022-10-17T11:34:45.636Z,6.47
2022-10-17T11:37:20.006Z,6.05
2022-10-17T11:39:55.256Z,5.85
2022-10-17T11:42:28.754Z,6.50
2022-10-17T11:45:01.971Z,6.03
2022-10-17T11:47:39.198Z,6.18
2022-10-17T11:53:13.950Z,6.10
2022-10-17T11:55:44.277Z,6.50
2022-10-17T11:58:41.077Z,6.10
2022-10-17T12:01:18.696Z,6.30
2022-10-17T12:04:02.385Z,6.25
2022-10-17T12:06:51.173Z,5.80
2022-10-17T12:09:27.645Z,5.15
2022-10-17T12:11:58.320Z,5.53
2022-10-17T12:14:40.703Z,5.18
2022-10-17T12:17:26.881Z,4.60
2022-10-17T12:19:55.448Z,4.72
2022-10-17T12:22:27.366Z,4.28
2022-10-17T12:24:58.629Z,4.55
2022-10-17T12:27:36.996Z,4.70
2022-10-17T12:30:25.003Z,4.35
2022-10-17T12:33:15.461Z,4.40
2022-10-17T12:35:43.652Z,4.50
2022-10-17T12:38:31.061Z,4.25
2022-10-17T12:41:05.739Z,4.15
2022-10-17T12:43:57.987Z,4.15
2022-10-17T12:46:52.031Z,4.05
2022-10-17T12:49:49.694Z,4.50
2022-10-17T12:52:30.585Z,4.60
2022-10-17T12:55:12.663Z,4.15
2022-10-17T12:57:54.513Z,4.15
2022-10-17T13:00:29.232Z,4.30
2022-10-17T13:03:05.434Z,8.27
2022-10-17T13:05:36.552Z,4.57
2022-10-17T13:08:08.521Z,4.82
2022-10-17T13:13:17.597Z,4.20
2022-10-17T13:15:49.644Z,4.10
2022-10-17T13:18:22.248Z,4.40
2022-10-17T13:20:59.385Z,4.60
2022-10-17T13:23:31.528Z,5.03
2022-10-17T13:26:16.075Z,4.38
2022-10-17T13:28:44.641Z,4.47
2022-10-17T13:31:30.936Z,4.70
2022-10-17T13:34:01.066Z,4.40
2022-10-17T13:36:32.402Z,4.80
2022-10-17T13:39:07.620Z,4.30
2022-10-17T13:41:42.354Z,5.57
2022-10-17T13:44:14.992Z,5.00
2022-10-17T13:46:43.957Z,4.75
2022-10-17T13:49:23.197Z,5.45
2022-10-17T13:51:55.996Z,5.50
2022-10-17T13:54:34.802Z,4.60
2022-10-17T13:57:05.932Z,4.80
2022-10-17T13:59:39.900Z,4.50
2022-10-17T14:02:15.978Z,4.47
2022-10-17T14:05:15.759Z,4.45
2022-10-17T14:08:09.198Z,5.20
2022-10-17T14:10:33.886Z,5.03
2022-10-17T14:13:05.355Z,4.97
2022-10-17T14:15:36.238Z,4.90
2022-10-17T14:18:08.166Z,4.60
2022-10-17T14:23:35.647Z,4.85
2022-10-17T14:26:15.161Z,4.80
2022-10-17T14:28:47.694Z,5.30
2022-10-17T14:33:55.696Z,5.93
2022-10-17T14:36:33.217Z,5.43
2022-10-17T14:39:02.472Z,5.35
2022-10-17T14:41:48.633Z,5.50
2022-10-17T14:44:27.536Z,5.10
2022-10-17T14:47:05.997Z,5.07
2022-10-17T14:49:40.923Z,4.88
2022-10-17T14:52:28.347Z,4.80
2022-10-17T14:54:58.011Z,4.70
2022-10-17T14:57:29.722Z,4.72
2022-10-17T14:59:59.945Z,5.00
2022-10-17T15:02:30.629Z,5.63
2022-10-17T15:04:58.984Z,5.70
2022-10-17T15:07:27.276Z,5.68
2022-10-17T15:09:56.195Z,5.18
2022-10-17T15:12:25.949Z,5.10
2022-10-17T15:14:55.044Z,5.05
2022-10-17T15:17:28.092Z,5.00
2022-10-17T15:19:59.306Z,5.38
2022-10-17T15:22:27.604Z,5.30
2022-10-17T15:24:59.139Z,5.28
2022-10-17T15:27:27.812Z,5.85
2022-10-17T15:29:56.291Z,5.38
2022-10-17T15:32:25.946Z,5.63
2022-10-17T15:34:56.182Z,5.63
2022-10-17T15:37:27.720Z,5.68
2022-10-17T15:39:56.770Z,6.07
2022-10-17T15:42:30.072Z,5.93
2022-10-17T15:44:59.325Z,5.78
2022-10-17T15:47:33.792Z,6.32
2022-10-17T15:50:04.049Z,6.35
2022-10-17T15:52:33.111Z,6.20
2022-10-17T15:57:38.067Z,6.40
2022-10-17T16:00:15.500Z,6.80
2022-10-17T16:02:47.043Z,6.78
2022-10-17T16:05:18.028Z,7.50
2022-10-17T16:07:48.019Z,8.43
2022-10-17T16:10:18.098Z,10.87
2022-10-17T16:12:50.129Z,12.50
2022-10-17T16:15:25.248Z,11.93
2022-10-17T16:17:57.900Z,13.70
2022-10-17T16:20:31.929Z,17.48
2022-10-17T16:25:34.759Z,17.48
2022-10-17T16:28:03.242Z,15.80
2022-10-17T16:30:32.879Z,14.63
2022-10-17T16:33:02.376Z,12.48
2022-10-17T16:35:36.515Z,10.40
2022-10-17T16:38:08.382Z,10.00
2022-10-17T16:40:39.825Z,10.20
2022-10-17T16:43:08.392Z,10.40
2022-10-17T16:45:38.153Z,11.43
2022-10-17T16:48:08.131Z,11.95
2022-10-17T16:50:40.640Z,12.13
2022-10-17T16:53:08.659Z,13.30
2022-10-17T16:55:36.653Z,14.38
2022-10-17T16:58:05.497Z,12.65
2022-10-17T17:00:33.885Z,12.50
2022-10-17T17:03:02.195Z,12.80
2022-10-17T17:05:36.596Z,11.98
2022-10-17T17:08:07.973Z,11.73
2022-10-17T17:10:45.922Z,11.73
2022-10-17T17:13:14.402Z,12.07
2022-10-17T17:15:42.899Z,12.15
2022-10-17T17:18:12.932Z,12.27
2022-10-17T17:20:43.241Z,12.18
2022-10-17T17:23:15.706Z,12.07
2022-10-17T17:25:45.460Z,12.05
2022-10-17T17:28:14.112Z,11.38
2022-10-17T17:30:42.183Z,11.27
2022-10-17T17:33:13.317Z,11.20
2022-10-17T17:35:43.218Z,10.75
2022-10-17T17:38:11.611Z,10.82
2022-10-17T17:40:50.427Z,10.73
2022-10-17T17:43:19.856Z,11.32
2022-10-17T17:45:50.553Z,11.32
2022-10-17T17:48:19.136Z,12.52
2022-10-17T17:50:49.183Z,12.93
2022-10-17T17:53:18.299Z,12.70
2022-10-17T17:55:46.680Z,13.70
2022-10-17T17:58:16.117Z,14.60
2022-10-17T18:00:45.664Z,15.25
2022-10-17T18:03:16.406Z,15.85
2022-10-17T18:05:45.000Z,15.75
2022-10-17T18:08:14.684Z,17.92
2022-10-17T18:10:47.630Z,18.00
2022-10-17T18:13:16.572Z,17.88
2022-10-17T18:15:45.106Z,18.10
2022-10-17T18:18:14.008Z,17.33
2022-10-17T18:20:43.053Z,18.42
2022-10-17T18:23:11.709Z,18.40
2022-10-17T18:25:46.250Z,18.27
2022-10-17T18:28:14.286Z,18.42
2022-10-17T18:30:42.436Z,18.55
2022-10-17T18:33:10.811Z,17.45
2022-10-17T18:35:38.923Z,18.10
2022-10-17T18:38:07.481Z,17.88
2022-10-17T18:40:37.024Z,17.65
2022-10-17T18:43:07.613Z,17.25
2022-10-17T18:45:35.982Z,16.98
2022-10-17T18:48:04.259Z,17.45
2022-10-17T18:50:32.738Z,17.50
2022-10-17T18:53:02.039Z,17.25
2022-10-17T18:55:32.897Z,17.80
2022-10-17T18:58:01.251Z,17.13
2022-10-17T19:00:31.398Z,17.23
2022-10-17T19:03:00.959Z,17.10
2022-10-17T19:05:30.547Z,16.77
2022-10-17T19:08:00.138Z,15.98
2022-10-17T19:10:28.742Z,15.82
2022-10-17T19:12:56.857Z,15.90
2022-10-17T19:15:26.078Z,16.77
2022-10-17T19:17:59.512Z,16.25
2022-10-17T19:20:28.821Z,16.35
2022-10-17T19:22:59.162Z,15.73
2022-10-17T19:25:30.498Z,16.77
2022-10-17T19:28:00.648Z,17.08
2022-10-17T19:30:29.656Z,16.50
2022-10-17T19:32:59.767Z,16.63
2022-10-17T19:35:29.479Z,17.65
2022-10-17T19:38:00.450Z,18.63
2022-10-17T19:40:29.519Z,19.07
2022-10-17T19:42:57.580Z,20.48
2022-10-17T19:45:26.373Z,18.55
2022-10-17T19:48:01.255Z,18.35
2022-10-17T19:50:32.276Z,17.95
2022-10-17T19:53:08.617Z,18.95
2022-10-17T19:55:38.259Z,20.15
2022-10-17T19:58:07.289Z,20.35
2022-10-17T20:03:10.831Z,22.13
2022-10-17T20:05:41.034Z,24.27
2022-10-17T20:08:11.500Z,23.55
2022-10-17T20:10:42.478Z,21.25
2022-10-17T20:13:11.475Z,22.45
2022-10-17T20:15:40.436Z,20.02
2022-10-17T20:18:12.329Z,19.80
2022-10-17T20:20:42.348Z,19.50
2022-10-17T20:23:12.803Z,19.48
2022-10-17T20:25:43.477Z,19.10
2022-10-17T20:28:13.724Z,18.35
2022-10-17T20:30:47.947Z,18.42
2022-10-17T20:33:20.568Z,17.65
2022-10-17T20:35:50.030Z,17.92
2022-10-17T20:38:20.388Z,17.35
2022-10-17T20:40:58.433Z,17.30
2022-10-17T20:43:31.248Z,17.58
2022-10-17T20:46:15.580Z,18.65
2022-10-17T20:48:58.596Z,18.02
2022-10-17T20:51:27.392Z,17.73
2022-10-17T20:56:33.094Z,16.42
2022-10-17T20:59:02.706Z,16.47
2022-10-17T21:01:33.054Z,16.10
2022-10-17T21:04:26.997Z,16.45
2022-10-17T21:07:01.690Z,16.10
2022-10-17T21:09:31.941Z,16.25
2022-10-17T21:12:05.022Z,16.88
2022-10-17T21:14:39.746Z,16.08
2022-10-17T21:17:11.987Z,17.27
2022-10-17T21:19:47.149Z,16.80
2022-10-17T21:22:17.987Z,17.13
2022-10-17T21:24:46.000Z,17.17
2022-10-17T21:27:16.790Z,17.88
2022-10-17T21:29:45.940Z,17.55
2022-10-17T21:32:31.913Z,18.75
2022-10-17T21:35:11.790Z,18.98
2022-10-17T21:37:42.519Z,20.30
2022-10-17T21:40:13.028Z,20.75
2022-10-17T21:42:43.379Z,20.08
2022-10-17T21:45:15.908Z,21.02
2022-10-17T21:48:12.150Z,22.45
2022-10-17T21:50:43.834Z,23.02
2022-10-17T21:53:16.604Z,23.08
2022-10-17T21:55:48.495Z,23.13
2022-10-17T21:58:20.664Z,24.02
2022-10-17T22:03:18.620Z,24.30
2022-10-17T22:06:06.992Z,24.45
2022-10-17T22:08:45.939Z,24.58
2022-10-17T22:11:17.375Z,25.00
2022-10-17T22:13:46.583Z,24.30
2022-10-17T22:16:18.031Z,23.25
2022-10-17T22:18:49.360Z,23.25
2022-10-17T22:21:23.311Z,22.52
2022-10-17T22:24:00.567Z,22.88
2022-10-17T22:26:31.563Z,22.90
2022-10-17T22:29:08.231Z,22.73
2022-10-17T22:31:36.891Z,22.92
2022-10-17T22:34:06.630Z,22.65
2022-10-17T22:36:37.519Z,22.88
2022-10-17T22:39:09.453Z,23.00
2022-10-17T22:44:13.416Z,23.38
2022-10-17T22:46:42.233Z,23.50
2022-10-17T22:49:12.310Z,24.98
2022-10-17T22:51:42.347Z,24.80
2022-10-17T22:54:10.732Z,24.48
2022-10-17T22:56:43.594Z,23.40
2022-10-17T22:59:13.737Z,24.15
2022-10-17T23:01:42.474Z,22.90
2022-10-17T23:04:10.963Z,24.73
2022-10-17T23:06:42.460Z,26.40
2022-10-17T23:09:10.941Z,27.05
2022-10-17T23:11:39.384Z,25.85
2022-10-17T23:14:07.716Z,25.73
2022-10-17T23:16:39.579Z,26.52
2022-10-17T23:21:38.869Z,26.77
2022-10-17T23:24:08.850Z,27.58
2022-10-17T23:26:39.200Z,26.08
2022-10-17T23:29:10.129Z,27.25
2022-10-17T23:31:39.113Z,25.48
2022-10-17T23:34:07.312Z,25.52
2022-10-17T23:36:35.822Z,25.73
2022-10-17T23:39:04.421Z,24.55
2022-10-17T23:41:36.751Z,25.52
2022-10-17T23:44:09.744Z,24.73
2022-10-17T23:46:39.187Z,25.85
2022-10-17T23:49:08.124Z,25.63
2022-10-17T23:51:36.711Z,25.42
2022-10-17T23:54:05.433Z,24.65
2022-10-17T23:56:35.291Z,24.80
2022-10-17T23:59:03.950Z,23.80
